createdAt,value
2023-02-24T00:01:52.491Z,9.00
2023-02-24T00:04:21.652Z,9.23
2023-02-24T00:06:51.801Z,8.77
2023-02-24T00:09:21.406Z,8.73
2023-02-24T00:11:54.282Z,9.17
2023-02-24T00:14:22.603Z,8.93
2023-02-24T00:16:50.434Z,8.37
2023-02-24T00:19:20.044Z,8.83
2023-02-24T00:21:48.165Z,8.57
2023-02-24T00:24:17.344Z,8.77
2023-02-24T00:26:45.910Z,8.93
2023-02-24T00:29:14.360Z,10.23
2023-02-24T00:31:43.231Z,7.47
2023-02-24T00:34:12.795Z,7.37
2023-02-24T00:36:41.654Z,7.17
2023-02-24T00:39:10.589Z,7.83
2023-02-24T00:41:41.621Z,7.70
2023-02-24T00:44:11.605Z,7.40
2023-02-24T00:46:41.341Z,7.67
2023-02-24T00:49:12.639Z,7.10
2023-02-24T00:51:42.581Z,7.03
2023-02-24T00:54:14.772Z,6.40
2023-02-24T00:56:45.200Z,6.33
2023-02-24T00:59:14.678Z,7.07
2023-02-24T01:01:44.184Z,6.43
2023-02-24T01:04:13.124Z,6.93
2023-02-24T01:06:43.355Z,7.07
2023-02-24T01:09:13.250Z,7.10
2023-02-24T01:11:59.394Z,6.30
2023-02-24T01:14:30.271Z,6.40
2023-02-24T01:16:58.543Z,5.90
2023-02-24T01:19:31.305Z,5.53
2023-02-24T01:21:59.229Z,5.80
2023-02-24T01:24:27.316Z,6.07
2023-02-24T01:26:55.453Z,5.40
2023-02-24T01:29:25.949Z,4.57
2023-02-24T01:31:57.981Z,6.00
2023-02-24T01:34:26.784Z,5.57
2023-02-24T01:36:55.199Z,5.17
2023-02-24T01:39:23.143Z,5.97
2023-02-24T01:41:52.936Z,6.27
2023-02-24T01:44:56.945Z,6.90
2023-02-24T01:47:30.893Z,6.63
2023-02-24T01:49:58.831Z,7.97
2023-02-24T01:52:31.083Z,7.23
2023-02-24T01:55:07.381Z,7.07
2023-02-24T01:57:38.626Z,7.93
2023-02-24T02:00:12.278Z,6.60
2023-02-24T02:02:47.403Z,7.37
2023-02-24T02:05:16.154Z,7.63
2023-02-24T02:07:46.004Z,6.97
2023-02-24T02:10:14.493Z,7.87
2023-02-24T02:12:45.548Z,6.77
2023-02-24T02:15:16.791Z,7.37
2023-02-24T02:17:56.616Z,7.47
2023-02-24T02:20:56.854Z,7.13
2023-02-24T02:24:00.867Z,6.63
2023-02-24T02:26:53.656Z,7.33
2023-02-24T02:29:59.725Z,8.70
2023-02-24T02:32:55.312Z,6.67
2023-02-24T02:35:28.423Z,7.07
2023-02-24T02:38:06.934Z,6.23
2023-02-24T02:40:41.412Z,7.10
2023-02-24T02:43:17.318Z,6.67
2023-02-24T02:45:48.963Z,6.77
2023-02-24T02:48:20.307Z,5.93
2023-02-24T02:50:54.898Z,6.93
2023-02-24T02:53:30.206Z,5.97
2023-02-24T02:56:02.319Z,5.80
2023-02-24T02:58:32.109Z,5.90
2023-02-24T03:01:03.557Z,5.63
2023-02-24T03:03:35.370Z,5.40
2023-02-24T03:06:07.456Z,5.80
2023-02-24T03:08:39.984Z,5.43
2023-02-24T03:11:14.003Z,5.87
2023-02-24T03:13:46.435Z,5.67
2023-02-24T03:16:17.320Z,6.83
2023-02-24T03:18:51.115Z,6.33
2023-02-24T03:21:28.643Z,6.27
2023-02-24T03:23:56.736Z,5.43
2023-02-24T03:26:29.051Z,7.27
2023-02-24T03:29:03.728Z,5.30
2023-02-24T03:31:39.184Z,5.60
2023-02-24T03:34:10.599Z,5.50
2023-02-24T03:36:39.808Z,5.80
2023-02-24T03:39:11.398Z,5.83
2023-02-24T03:41:46.654Z,7.00
2023-02-24T03:44:14.806Z,6.53
2023-02-24T03:46:43.011Z,6.63
2023-02-24T03:49:16.513Z,6.30
2023-02-24T03:51:56.955Z,5.73
2023-02-24T03:54:42.842Z,5.80
2023-02-24T03:57:23.025Z,6.10
2023-02-24T04:00:19.728Z,5.63
2023-02-24T04:02:49.606Z,5.33
2023-02-24T04:05:24.675Z,5.60
2023-02-24T04:07:59.585Z,6.90
2023-02-24T04:10:32.833Z,6.13
2023-02-24T04:13:07.350Z,6.33
2023-02-24T04:15:39.715Z,6.00
2023-02-24T04:18:14.243Z,5.20
2023-02-24T04:20:43.748Z,6.70
2023-02-24T04:23:16.676Z,5.33
2023-02-24T04:25:46.459Z,5.90
2023-02-24T04:28:18.758Z,5.37
2023-02-24T04:30:50.815Z,6.43
2023-02-24T04:33:19.457Z,6.10
2023-02-24T04:35:50.420Z,5.90
2023-02-24T04:38:20.191Z,5.97
2023-02-24T04:40:49.667Z,6.57
2023-02-24T04:43:17.894Z,6.27
2023-02-24T04:45:45.931Z,6.53
2023-02-24T04:48:14.199Z,6.07
2023-02-24T04:50:44.542Z,5.90
2023-02-24T04:53:14.852Z,4.90
2023-02-24T04:55:48.627Z,5.07
2023-02-24T04:58:20.554Z,5.07
2023-02-24T05:00:52.489Z,5.40
2023-02-24T05:03:21.664Z,5.40
2023-02-24T05:05:51.838Z,4.87
2023-02-24T05:08:20.677Z,5.43
2023-02-24T05:10:50.210Z,5.47
2023-02-24T05:13:20.178Z,8.60
2023-02-24T05:15:49.705Z,8.53
2023-02-24T05:18:19.087Z,7.57
2023-02-24T05:21:08.495Z,8.00
2023-02-24T05:23:39.152Z,6.07
2023-02-24T05:26:10.296Z,6.50
2023-02-24T05:28:40.504Z,7.13
2023-02-24T05:31:09.848Z,9.90
2023-02-24T05:33:38.895Z,7.20
2023-02-24T05:36:09.844Z,7.07
2023-02-24T05:38:38.516Z,7.77
2023-02-24T05:41:14.978Z,7.03
2023-02-24T05:43:47.999Z,6.73
2023-02-24T05:46:16.327Z,6.57
2023-02-24T05:48:44.529Z,6.63
2023-02-24T05:51:12.600Z,7.23
2023-02-24T05:53:42.278Z,8.00
2023-02-24T05:56:12.089Z,7.63
2023-02-24T05:58:40.168Z,8.87
2023-02-24T06:01:16.128Z,7.20
2023-02-24T06:03:47.722Z,7.37
2023-02-24T06:06:16.297Z,7.60
2023-02-24T06:08:49.846Z,7.90
2023-02-24T06:11:21.417Z,8.00
2023-02-24T06:13:49.572Z,8.73
2023-02-24T06:16:19.060Z,9.50
2023-02-24T06:18:50.470Z,12.43
2023-02-24T06:21:19.131Z,8.30
2023-02-24T06:23:47.185Z,7.20
2023-02-24T06:26:19.224Z,7.93
2023-02-24T06:28:49.804Z,8.67
2023-02-24T06:31:17.670Z,8.07
2023-02-24T06:33:45.501Z,9.20
2023-02-24T06:36:14.234Z,8.23
2023-02-24T06:38:42.595Z,9.07
2023-02-24T06:41:11.703Z,8.70
2023-02-24T06:43:40.269Z,11.03
2023-02-24T06:46:09.916Z,11.73
2023-02-24T06:48:37.968Z,12.17
2023-02-24T06:51:06.591Z,18.27
2023-02-24T06:53:35.934Z,17.63
2023-02-24T06:56:14.755Z,15.00
2023-02-24T06:58:44.979Z,25.13
2023-02-24T07:01:16.326Z,28.07
2023-02-24T07:04:02.960Z,22.23
2023-02-24T07:06:34.212Z,25.93
2023-02-24T07:09:05.931Z,13.67
2023-02-24T07:11:35.076Z,17.03
2023-02-24T07:14:05.588Z,14.30
2023-02-24T07:16:35.763Z,15.17
2023-02-24T07:19:09.568Z,12.23
2023-02-24T07:21:39.791Z,14.13
2023-02-24T07:24:08.790Z,12.30
2023-02-24T07:26:41.798Z,33.83
2023-02-24T07:29:11.313Z,14.77
2023-02-24T07:31:42.725Z,10.40
2023-02-24T07:34:14.878Z,9.90
2023-02-24T07:36:49.178Z,9.93
2023-02-24T07:39:18.798Z,15.03
2023-02-24T07:41:49.445Z,17.27
2023-02-24T07:44:18.653Z,11.37
2023-02-24T07:46:48.904Z,15.87
2023-02-24T07:49:19.683Z,11.43
2023-02-24T07:51:52.291Z,13.43
2023-02-24T07:54:21.034Z,14.13
2023-02-24T07:56:56.414Z,14.63
2023-02-24T07:59:25.710Z,10.93
2023-02-24T08:01:56.031Z,10.90
2023-02-24T08:04:26.710Z,10.73
2023-02-24T08:07:02.357Z,11.77
2023-02-24T08:09:49.685Z,13.97
2023-02-24T08:12:21.101Z,13.53
2023-02-24T08:14:51.629Z,12.73
2023-02-24T08:17:22.710Z,12.70
2023-02-24T08:20:08.415Z,19.40
2023-02-24T08:22:37.261Z,26.83
2023-02-24T08:25:06.592Z,12.40
2023-02-24T08:27:38.937Z,20.90
2023-02-24T08:30:09.269Z,19.93
2023-02-24T08:32:43.547Z,16.80
2023-02-24T08:35:15.294Z,19.20
2023-02-24T08:37:47.069Z,17.57
2023-02-24T08:40:37.893Z,17.27
2023-02-24T08:43:16.885Z,14.70
2023-02-24T08:45:45.892Z,13.27
2023-02-24T08:48:32.162Z,13.47
2023-02-24T08:51:04.523Z,13.30
2023-02-24T08:53:32.401Z,14.43
2023-02-24T08:56:09.363Z,15.43
2023-02-24T08:58:40.899Z,12.57
2023-02-24T09:01:18.951Z,14.40
2023-02-24T09:03:50.130Z,33.07
2023-02-24T09:06:25.496Z,10.80
2023-02-24T09:09:17.070Z,7.57
2023-02-24T09:11:46.363Z,7.17
2023-02-24T09:14:26.430Z,8.37
2023-02-24T09:17:07.050Z,7.77
2023-02-24T09:19:56.675Z,8.53
2023-02-24T09:22:57.039Z,8.77
2023-02-24T09:25:40.333Z,9.43
2023-02-24T09:28:16.869Z,10.10
2023-02-24T09:30:53.368Z,12.53
2023-02-24T09:33:23.881Z,12.97
2023-02-24T09:36:09.329Z,8.67
2023-02-24T09:38:56.405Z,7.93
2023-02-24T09:41:53.145Z,6.60
2023-02-24T09:44:27.851Z,6.80
2023-02-24T09:47:00.007Z,7.07
2023-02-24T09:49:39.867Z,7.43
2023-02-24T09:52:16.993Z,6.33
2023-02-24T09:55:14.504Z,7.70
2023-02-24T09:58:17.930Z,7.73
2023-02-24T10:00:55.644Z,33.40
2023-02-24T10:03:42.618Z,10.57
2023-02-24T10:06:20.473Z,21.57
2023-02-24T10:08:56.828Z,10.90
2023-02-24T10:11:33.726Z,7.73
2023-02-24T10:14:06.314Z,11.40
2023-02-24T10:16:43.455Z,16.37
2023-02-24T10:19:27.840Z,9.90
2023-02-24T10:22:03.962Z,6.90
2023-02-24T10:24:37.986Z,7.73
2023-02-24T10:27:18.457Z,7.00
2023-02-24T10:30:01.130Z,6.57
2023-02-24T10:32:41.203Z,6.20
2023-02-24T10:35:16.530Z,6.00
2023-02-24T10:37:44.801Z,6.57
2023-02-24T10:40:24.753Z,6.67
2023-02-24T10:43:03.786Z,7.40
2023-02-24T10:45:34.694Z,7.93
2023-02-24T10:48:08.955Z,8.10
2023-02-24T10:50:55.298Z,9.20
2023-02-24T10:53:34.539Z,7.97
2023-02-24T10:56:26.696Z,8.93
2023-02-24T10:59:20.531Z,6.97
2023-02-24T11:01:59.216Z,7.90
2023-02-24T11:04:54.256Z,6.60
2023-02-24T11:07:25.469Z,7.53
2023-02-24T11:10:12.075Z,8.60
2023-02-24T11:13:10.033Z,7.23
2023-02-24T11:16:00.804Z,7.50
2023-02-24T11:18:30.108Z,7.70
2023-02-24T11:21:01.313Z,7.40
2023-02-24T11:23:34.905Z,7.30
2023-02-24T11:26:07.614Z,8.03
2023-02-24T11:28:48.850Z,8.23
2023-02-24T11:31:32.371Z,7.93
2023-02-24T11:34:07.911Z,7.97
2023-02-24T11:36:45.968Z,8.47
2023-02-24T11:39:34.857Z,7.53
2023-02-24T11:42:09.318Z,7.87
2023-02-24T11:44:46.987Z,7.60
2023-02-24T11:47:18.078Z,6.50
2023-02-24T11:49:50.914Z,7.23
2023-02-24T11:52:21.847Z,6.33
2023-02-24T11:54:53.809Z,6.77
2023-02-24T11:57:29.168Z,7.13
2023-02-24T12:00:13.262Z,7.60
2023-02-24T12:02:48.276Z,7.17
2023-02-24T12:05:18.748Z,6.50
2023-02-24T12:07:52.062Z,7.87
2023-02-24T12:10:24.335Z,6.63
2023-02-24T12:13:02.037Z,7.33
2023-02-24T12:15:34.533Z,8.63
2023-02-24T12:18:13.644Z,9.63
2023-02-24T12:20:48.505Z,8.30
2023-02-24T12:23:23.284Z,11.30
2023-02-24T12:26:08.769Z,10.57
2023-02-24T12:29:04.143Z,8.37
2023-02-24T12:31:42.071Z,7.47
2023-02-24T12:34:15.438Z,6.77
2023-02-24T12:36:56.758Z,6.40
2023-02-24T12:39:31.731Z,6.93
2023-02-24T12:42:08.497Z,7.07
2023-02-24T12:44:45.272Z,5.83
2023-02-24T12:47:16.906Z,5.50
2023-02-24T12:50:01.563Z,5.60
2023-02-24T12:52:40.040Z,6.33
2023-02-24T12:55:18.772Z,6.00
2023-02-24T12:57:55.959Z,5.90
2023-02-24T13:00:31.498Z,5.80
2023-02-24T13:03:15.026Z,5.70
2023-02-24T13:05:47.185Z,5.57
2023-02-24T13:08:25.284Z,5.27
2023-02-24T13:11:04.629Z,6.40
2023-02-24T13:13:38.253Z,6.30
2023-02-24T13:16:06.344Z,6.07
2023-02-24T13:18:39.426Z,5.40
2023-02-24T13:21:10.220Z,4.67
2023-02-24T13:23:41.550Z,5.70
2023-02-24T13:26:10.320Z,5.80
2023-02-24T13:28:38.988Z,6.93
2023-02-24T13:31:10.537Z,5.93
2023-02-24T13:33:40.832Z,6.20
2023-02-24T13:36:13.620Z,6.10
2023-02-24T13:38:43.717Z,5.97
2023-02-24T13:41:38.197Z,5.73
2023-02-24T13:44:23.583Z,6.37
2023-02-24T13:47:16.661Z,6.73
2023-02-24T13:49:56.005Z,6.57
2023-02-24T13:52:40.736Z,5.80
2023-02-24T13:55:26.178Z,6.53
2023-02-24T13:58:06.288Z,5.40
2023-02-24T14:00:48.454Z,6.37
2023-02-24T14:03:21.451Z,6.27
2023-02-24T14:05:52.332Z,6.57
2023-02-24T14:08:22.889Z,6.53
2023-02-24T14:10:56.010Z,6.13
2023-02-24T14:13:27.907Z,5.97
2023-02-24T14:15:56.450Z,6.20
2023-02-24T14:18:27.343Z,6.50
2023-02-24T14:20:59.161Z,6.13
2023-02-24T14:23:28.734Z,6.27
2023-02-24T14:25:59.492Z,6.97
2023-02-24T14:28:31.378Z,6.33
2023-02-24T14:31:03.168Z,25.27
2023-02-24T14:33:33.204Z,6.47
2023-02-24T14:36:04.685Z,6.30
2023-02-24T14:38:35.563Z,5.43
2023-02-24T14:41:05.742Z,6.40
2023-02-24T14:43:33.618Z,6.27
2023-02-24T14:46:06.707Z,6.23
2023-02-24T14:48:34.809Z,5.90
2023-02-24T14:51:09.730Z,5.47
2023-02-24T14:53:43.346Z,5.60
2023-02-24T14:56:13.289Z,6.53
2023-02-24T14:58:45.782Z,6.13
2023-02-24T15:01:21.887Z,5.70
2023-02-24T15:03:53.319Z,5.77
2023-02-24T15:06:25.863Z,5.70
2023-02-24T15:08:59.186Z,6.20
2023-02-24T15:11:29.783Z,6.23
2023-02-24T15:14:00.784Z,6.40
2023-02-24T15:16:34.628Z,5.83
2023-02-24T15:19:02.957Z,6.37
2023-02-24T15:21:33.524Z,5.83
2023-02-24T15:24:03.557Z,6.17
2023-02-24T15:26:34.352Z,6.93
2023-02-24T15:29:04.507Z,6.47
2023-02-24T15:31:32.625Z,5.47
2023-02-24T15:34:03.622Z,6.50
2023-02-24T15:36:35.492Z,6.20
2023-02-24T15:39:07.558Z,5.77
2023-02-24T15:41:43.888Z,6.77
2023-02-24T15:44:26.292Z,5.33
2023-02-24T15:46:54.647Z,5.60
2023-02-24T15:49:22.551Z,5.90
2023-02-24T15:51:53.299Z,6.07
2023-02-24T15:54:26.432Z,5.80
2023-02-24T15:56:54.262Z,6.60
2023-02-24T15:59:22.443Z,6.77
2023-02-24T16:01:51.821Z,5.97
2023-02-24T16:04:19.869Z,5.80
2023-02-24T16:06:55.210Z,6.80
2023-02-24T16:09:30.275Z,6.37
2023-02-24T16:11:58.164Z,6.27
2023-02-24T16:14:26.543Z,7.57
2023-02-24T16:16:54.471Z,7.30
2023-02-24T16:19:22.417Z,8.53
2023-02-24T16:21:51.600Z,5.87
2023-02-24T16:24:21.467Z,8.83
2023-02-24T16:26:49.571Z,7.20
2023-02-24T16:29:17.319Z,7.17
2023-02-24T16:31:45.294Z,7.03
2023-02-24T16:34:18.940Z,6.67
2023-02-24T16:36:47.587Z,6.60
2023-02-24T16:39:16.764Z,6.57
2023-02-24T16:41:44.591Z,7.57
2023-02-24T16:44:12.379Z,6.80
2023-02-24T16:46:41.545Z,7.27
2023-02-24T16:49:11.067Z,6.77
2023-02-24T16:51:39.090Z,8.20
2023-02-24T16:54:06.961Z,7.83
2023-02-24T16:56:36.078Z,7.67
2023-02-24T16:59:03.877Z,7.90
2023-02-24T17:01:32.201Z,6.57
2023-02-24T17:04:00.179Z,6.57
2023-02-24T17:06:29.154Z,6.80
2023-02-24T17:08:56.996Z,7.87
2023-02-24T17:11:26.957Z,7.33
2023-02-24T17:13:56.067Z,7.37
2023-02-24T17:16:24.281Z,8.00
2023-02-24T17:18:52.343Z,7.23
2023-02-24T17:21:20.183Z,7.93
2023-02-24T17:23:47.937Z,7.27
2023-02-24T17:26:16.717Z,7.93
2023-02-24T17:28:44.674Z,7.07
2023-02-24T17:31:13.850Z,8.30
2023-02-24T17:33:42.066Z,9.37
2023-02-24T17:36:09.871Z,7.90
2023-02-24T17:38:37.947Z,9.20
2023-02-24T17:41:06.076Z,8.63
2023-02-24T17:43:33.866Z,8.43
2023-02-24T17:46:06.831Z,9.40
2023-02-24T17:48:36.401Z,9.40
2023-02-24T17:51:04.307Z,8.53
2023-02-24T17:53:32.219Z,9.03
2023-02-24T17:56:04.142Z,8.87
2023-02-24T17:58:32.615Z,8.47
2023-02-24T18:01:01.883Z,8.30
2023-02-24T18:03:30.271Z,8.63
2023-02-24T18:06:04.649Z,9.13
2023-02-24T18:08:34.612Z,8.70
2023-02-24T18:11:02.794Z,8.63
2023-02-24T18:13:31.236Z,8.40
2023-02-24T18:15:59.739Z,8.10
2023-02-24T18:18:30.165Z,8.57
2023-02-24T18:21:02.762Z,8.43
2023-02-24T18:23:30.813Z,8.60
2023-02-24T18:26:02.444Z,8.87
2023-02-24T18:28:30.510Z,8.93
2023-02-24T18:30:58.643Z,9.27
2023-02-24T18:33:26.747Z,10.57
2023-02-24T18:36:02.378Z,9.70
2023-02-24T18:38:30.511Z,10.10
2023-02-24T18:40:59.787Z,11.13
2023-02-24T18:43:27.588Z,9.90
2023-02-24T18:46:00.187Z,9.17
2023-02-24T18:48:28.305Z,10.40
2023-02-24T18:50:57.370Z,10.13
2023-02-24T18:53:29.963Z,10.50
2023-02-24T18:56:01.712Z,11.63
2023-02-24T18:58:29.806Z,9.77
2023-02-24T19:00:57.744Z,10.97
2023-02-24T19:03:25.555Z,11.00
2023-02-24T19:05:53.354Z,9.93
2023-02-24T19:08:21.158Z,11.03
2023-02-24T19:10:50.274Z,10.03
2023-02-24T19:13:18.075Z,9.90
2023-02-24T19:15:45.902Z,10.20
2023-02-24T19:18:13.924Z,10.13
2023-02-24T19:20:43.605Z,9.97
2023-02-24T19:23:11.667Z,10.93
2023-02-24T19:25:39.407Z,10.73
2023-02-24T19:28:08.517Z,9.37
2023-02-24T19:30:36.259Z,10.50
2023-02-24T19:33:04.095Z,10.43
2023-02-24T19:35:32.110Z,11.03
2023-02-24T19:37:59.903Z,11.47
2023-02-24T19:40:27.681Z,11.00
2023-02-24T19:42:55.470Z,11.10
2023-02-24T19:45:24.644Z,12.07
2023-02-24T19:47:52.475Z,10.63
2023-02-24T19:50:20.416Z,10.90
2023-02-24T19:52:48.193Z,9.60
2023-02-24T19:55:15.980Z,9.53
2023-02-24T19:57:43.767Z,10.70
2023-02-24T20:00:12.808Z,10.20
2023-02-24T20:02:41.957Z,10.93
2023-02-24T20:05:10.716Z,11.37
2023-02-24T20:07:38.634Z,9.33
2023-02-24T20:10:07.163Z,9.37
2023-02-24T20:12:34.967Z,9.33
2023-02-24T20:15:02.840Z,7.23
2023-02-24T20:17:30.651Z,5.83
2023-02-24T20:19:59.833Z,4.93
2023-02-24T20:22:27.602Z,6.57
2023-02-24T20:24:55.354Z,6.80
2023-02-24T20:27:23.126Z,3.77
2023-02-24T20:29:53.461Z,2.87
2023-02-24T20:32:23.322Z,3.10
2023-02-24T20:34:51.416Z,2.57
2023-02-24T20:37:20.623Z,3.57
2023-02-24T20:39:48.648Z,3.50
2023-02-24T20:42:16.394Z,3.70
2023-02-24T20:44:44.146Z,3.93
2023-02-24T20:47:11.903Z,4.17
2023-02-24T20:49:40.030Z,6.43
2023-02-24T20:52:07.785Z,5.70
2023-02-24T20:54:36.989Z,4.60
2023-02-24T20:57:05.080Z,5.60
2023-02-24T20:59:32.843Z,5.17
2023-02-24T21:02:00.655Z,5.73
2023-02-24T21:04:28.465Z,6.40
2023-02-24T21:06:56.679Z,6.67
2023-02-24T21:09:25.477Z,6.83
2023-02-24T21:11:54.540Z,5.40
2023-02-24T21:14:22.938Z,5.60
2023-02-24T21:16:50.707Z,7.43
2023-02-24T21:19:20.164Z,7.33
2023-02-24T21:21:48.016Z,7.27
2023-02-24T21:24:15.889Z,6.10
2023-02-24T21:26:43.659Z,6.30
2023-02-24T21:29:12.765Z,8.00
2023-02-24T21:31:40.814Z,6.30
2023-02-24T21:34:11.308Z,6.27
2023-02-24T21:36:39.354Z,5.50
2023-02-24T21:39:07.457Z,5.33
2023-02-24T21:41:36.289Z,6.00
2023-02-24T21:44:04.966Z,5.87
2023-02-24T21:46:34.355Z,6.43
2023-02-24T21:49:02.136Z,5.40
2023-02-24T21:51:30.099Z,6.27
2023-02-24T21:54:02.805Z,7.87
2023-02-24T21:56:32.249Z,5.50
2023-02-24T21:59:02.440Z,5.90
2023-02-24T22:01:31.802Z,5.70
2023-02-24T22:04:03.590Z,7.70
2023-02-24T22:06:34.257Z,5.13
2023-02-24T22:09:03.245Z,4.63
2023-02-24T22:11:34.992Z,5.90
2023-02-24T22:14:03.282Z,4.60
2023-02-24T22:16:31.182Z,5.57
2023-02-24T22:18:59.050Z,5.73
2023-02-24T22:21:30.004Z,5.27
2023-02-24T22:23:59.377Z,5.37
2023-02-24T22:26:27.933Z,5.77
2023-02-24T22:28:56.737Z,6.03
2023-02-24T22:31:26.391Z,6.03
2023-02-24T22:33:54.292Z,6.20
2023-02-24T22:36:24.998Z,6.10
2023-02-24T22:38:55.655Z,6.70
2023-02-24T22:41:26.113Z,7.30
2023-02-24T22:43:54.588Z,7.00
2023-02-24T22:46:25.246Z,8.07
2023-02-24T22:48:53.368Z,8.43
2023-02-24T22:51:21.480Z,8.03
2023-02-24T22:53:50.154Z,6.90
2023-02-24T22:56:21.250Z,7.53
2023-02-24T22:58:50.083Z,6.53
2023-02-24T23:01:19.437Z,7.20
2023-02-24T23:03:47.522Z,7.70
2023-02-24T23:06:17.280Z,7.73
2023-02-24T23:08:47.848Z,8.27
2023-02-24T23:11:18.324Z,8.30
2023-02-24T23:13:49.168Z,7.97
2023-02-24T23:16:19.354Z,7.90
2023-02-24T23:18:50.583Z,8.07
2023-02-24T23:21:22.158Z,8.93
2023-02-24T23:23:50.232Z,9.43
2023-02-24T23:26:18.574Z,9.30
2023-02-24T23:28:47.663Z,9.77
2023-02-24T23:31:20.300Z,9.60
2023-02-24T23:33:48.303Z,8.83
2023-02-24T23:36:16.760Z,9.33
2023-02-24T23:38:44.591Z,10.70
2023-02-24T23:41:13.384Z,10.67
2023-02-24T23:43:41.488Z,9.00
2023-02-24T23:46:13.293Z,9.90
2023-02-24T23:48:41.233Z,10.10
2023-02-24T23:51:13.278Z,10.17
2023-02-24T23:53:42.891Z,9.37
2023-02-24T23:56:13.896Z,10.57
2023-02-24T23:58:42.078Z,10.13
